Time;durP1;ratioP1;P1;durP2;ratioP2;P2;SDS_P1;SDS_P2;PMS_P1;PMS_P2;Temp;Humidity;BMP_temperature;BMP_pressure;BME280_temperature;BME280_humidity;BME280_pressure;Samples;Min_cycle;Max_cycle;Signal;HPM_P1;HPM_P2
2022/07/05 00:01:43;;;;;;;60.10;4.10;;;;;;;;;;5071448;28;20443;-66
2022/07/05 00:04:12;;;;;;;60.67;4.33;;;;;;;;;;5071228;28;20474;-66
2022/07/05 00:07:17;;;;;;;60.07;4.13;;;;;;;;;;5071570;28;20449;-66
2022/07/05 00:09:30;;;;;;;60.30;4.13;;;;;;;;;;5071166;28;20448;-66
2022/07/05 00:11:59;;;;;;;61.20;4.50;;;;;;;;;;5071488;28;21077;-66
2022/07/05 00:14:27;;;;;;;60.47;4.10;;;;;;;;;;5071095;28;20821;-66
2022/07/05 00:16:57;;;;;;;59.93;4.60;;;;;;;;;;5071370;28;20497;-66
2022/07/05 00:19:27;;;;;;;60.47;4.40;;;;;;;;;;5071166;28;20789;-66
2022/07/05 00:21:54;;;;;;;60.60;4.77;;;;;;;;;;5071542;28;20534;-66
2022/07/05 00:24:21;;;;;;;60.37;4.73;;;;;;;;;;5071270;28;20471;-66
2022/07/05 00:26:49;;;;;;;60.50;4.50;;;;;;;;;;5071431;28;20445;-66
2022/07/05 00:29:17;;;;;;;61.40;4.50;;;;;;;;;;5070953;28;20448;-66
2022/07/05 00:31:47;;;;;;;59.77;4.13;;;;;;;;;;5071289;28;20519;-66
2022/07/05 00:34:16;;;;;;;60.73;4.90;;;;;;;;;;5071337;28;20467;-66
2022/07/05 00:36:44;;;;;;;61.93;5.10;;;;;;;;;;5071405;28;20831;-66
2022/07/05 00:39:13;;;;;;;60.60;4.33;;;;;;;;;;5070989;28;20538;-66
2022/07/05 00:41:41;;;;;;;60.47;4.30;;;;;;;;;;5071301;28;20443;-66
2022/07/05 00:44:09;;;;;;;60.20;4.10;;;;;;;;;;5070919;28;20521;-66
2022/07/05 00:46:36;;;;;;;60.50;4.33;;;;;;;;;;5071357;28;20444;-66
2022/07/05 00:49:04;;;;;;;60.10;4.40;;;;;;;;;;5071127;28;20828;-66
2022/07/05 00:51:38;;;;;;;60.47;4.37;;;;;;;;;;5071171;28;20443;-66
2022/07/05 00:54:07;;;;;;;60.13;4.63;;;;;;;;;;5070748;28;20475;-66
2022/07/05 00:56:34;;;;;;;60.87;4.73;;;;;;;;;;5070943;28;20460;-66
2022/07/05 00:59:02;;;;;;;60.10;4.67;;;;;;;;;;5070729;28;20485;-66
2022/07/05 01:01:29;;;;;;;60.60;4.57;;;;;;;;;;5071137;28;20447;-66
2022/07/05 01:03:57;;;;;;;61.43;5.00;;;;;;;;;;5071050;28;20469;-66
2022/07/05 01:06:25;;;;;;;59.70;4.37;;;;;;;;;;5072790;28;20481;-66
2022/07/05 01:08:54;;;;;;;60.47;4.50;;;;;;;;;;5074075;28;20839;-66
2022/07/05 01:11:21;;;;;;;60.70;4.60;;;;;;;;;;5074810;28;20821;-66
2022/07/05 01:13:48;;;;;;;60.70;4.47;;;;;;;;;;5074454;28;20486;-66
2022/07/05 01:16:16;;;;;;;63.87;5.13;;;;;;;;;;5074727;28;20481;-66
2022/07/05 01:18:44;;;;;;;61.07;4.80;;;;;;;;;;5074255;28;20444;-66
2022/07/05 01:21:14;;;;;;;60.30;4.00;;;;;;;;;;5074471;28;20457;-67
2022/07/05 01:23:43;;;;;;;60.00;4.87;;;;;;;;;;5074123;28;20466;-66
2022/07/05 01:26:10;;;;;;;60.27;4.70;;;;;;;;;;5074318;28;20455;-66
2022/07/05 01:28:38;;;;;;;60.57;4.73;;;;;;;;;;5074160;28;20443;-66
2022/07/05 01:31:05;;;;;;;59.70;4.30;;;;;;;;;;5074111;28;20465;-66
2022/07/05 01:33:37;;;;;;;59.60;4.00;;;;;;;;;;5074032;28;20489;-66
2022/07/05 01:36:07;;;;;;;61.10;4.30;;;;;;;;;;5074100;28;20452;-66
2022/07/05 01:38:34;;;;;;;60.90;4.40;;;;;;;;;;5073994;28;20826;-66
2022/07/05 01:41:04;;;;;;;61.70;4.77;;;;;;;;;;5073069;28;20931;-66
2022/07/05 01:43:31;;;;;;;61.87;4.77;;;;;;;;;;5073915;28;20488;-67
2022/07/05 01:45:59;;;;;;;59.77;4.40;;;;;;;;;;5074074;28;20821;-66
2022/07/05 01:48:28;;;;;;;62.77;4.17;;;;;;;;;;5073775;28;20547;-66
2022/07/05 01:50:56;;;;;;;60.33;4.33;;;;;;;;;;5073817;28;20443;-66
2022/07/05 01:53:24;;;;;;;61.17;4.90;;;;;;;;;;5073558;28;20490;-66
2022/07/05 01:55:52;;;;;;;60.57;5.23;;;;;;;;;;5073592;28;20541;-67
2022/07/05 01:58:21;;;;;;;60.80;4.73;;;;;;;;;;5073550;28;20459;-66
2022/07/05 02:00:48;;;;;;;60.10;4.50;;;;;;;;;;5073811;28;20451;-66
2022/07/05 02:03:16;;;;;;;60.87;5.23;;;;;;;;;;5072354;28;20459;-66
2022/07/05 02:05:44;;;;;;;60.27;4.67;;;;;;;;;;5074015;28;20450;-66
2022/07/05 02:08:12;;;;;;;60.33;4.47;;;;;;;;;;5073646;28;20473;-66
2022/07/05 02:10:40;;;;;;;60.73;4.80;;;;;;;;;;5072261;28;20451;-66
2022/07/05 02:13:09;;;;;;;63.20;5.00;;;;;;;;;;5073121;28;20925;-66
2022/07/05 02:15:39;;;;;;;60.00;4.17;;;;;;;;;;5073499;28;20453;-66
2022/07/05 02:18:08;;;;;;;63.10;5.03;;;;;;;;;;5072965;28;20534;-66
2022/07/05 02:20:35;;;;;;;67.13;4.40;;;;;;;;;;5072997;28;20443;-66
2022/07/05 02:23:03;;;;;;;61.90;4.97;;;;;;;;;;5071722;28;20803;-66
2022/07/05 02:25:30;;;;;;;61.03;5.30;;;;;;;;;;5073094;28;20940;-66
2022/07/05 02:27:58;;;;;;;60.57;5.07;;;;;;;;;;5072756;28;20830;-66
2022/07/05 02:30:25;;;;;;;62.30;4.57;;;;;;;;;;5073173;28;20533;-66
2022/07/05 02:32:54;;;;;;;63.40;4.53;;;;;;;;;;5072876;28;20491;-66
2022/07/05 02:35:21;;;;;;;60.20;4.40;;;;;;;;;;5072875;28;20822;-66
2022/07/05 02:37:49;;;;;;;60.17;4.23;;;;;;;;;;5072874;28;20473;-66
2022/07/05 02:40:16;;;;;;;60.00;4.30;;;;;;;;;;5072992;28;20451;-66
2022/07/05 02:42:43;;;;;;;61.40;4.87;;;;;;;;;;5072779;28;20449;-66
2022/07/05 02:45:11;;;;;;;61.13;4.80;;;;;;;;;;5072824;28;20465;-66
2022/07/05 02:47:38;;;;;;;61.67;4.87;;;;;;;;;;5072396;28;20534;-66
2022/07/05 02:50:07;;;;;;;60.50;4.43;;;;;;;;;;5072645;28;20463;-66
2022/07/05 02:52:35;;;;;;;61.30;4.77;;;;;;;;;;5072380;28;21006;-66
2022/07/05 02:55:04;;;;;;;61.37;4.40;;;;;;;;;;5072692;28;20454;-66
2022/07/05 02:57:31;;;;;;;63.13;4.67;;;;;;;;;;5072069;28;20452;-66
2022/07/05 02:59:59;;;;;;;60.50;4.37;;;;;;;;;;5072601;28;20596;-66
2022/07/05 03:02:26;;;;;;;61.07;4.50;;;;;;;;;;5072261;28;20439;-66
2022/07/05 03:04:54;;;;;;;60.40;4.77;;;;;;;;;;5072789;28;20469;-66
2022/07/05 03:07:23;;;;;;;61.67;5.63;;;;;;;;;;5071985;28;20458;-66
2022/07/05 03:09:50;;;;;;;60.80;4.87;;;;;;;;;;5072274;28;21008;-66
2022/07/05 03:12:17;;;;;;;60.80;4.40;;;;;;;;;;5072151;28;20446;-66
2022/07/05 03:14:44;;;;;;;60.43;4.47;;;;;;;;;;5071729;28;20846;-66
2022/07/05 03:17:15;;;;;;;60.57;4.50;;;;;;;;;;5072035;28;20451;-66
2022/07/05 03:19:42;;;;;;;60.47;4.73;;;;;;;;;;5072341;28;20587;-66
2022/07/05 03:22:09;;;;;;;60.73;4.80;;;;;;;;;;5072240;28;20443;-66
2022/07/05 03:24:40;;;;;;;61.00;4.80;;;;;;;;;;5072008;28;20471;-66
2022/07/05 03:27:07;;;;;;;60.50;4.53;;;;;;;;;;5071995;28;20500;-66
2022/07/05 03:29:36;;;;;;;60.50;4.73;;;;;;;;;;5071640;28;20457;-67
2022/07/05 03:32:03;;;;;;;62.77;4.80;;;;;;;;;;5072202;28;20542;-66
2022/07/05 03:34:32;;;;;;;60.40;4.57;;;;;;;;;;5071518;28;20491;-66
2022/07/05 03:36:59;;;;;;;60.33;4.97;;;;;;;;;;5071933;28;20525;-66
2022/07/05 03:39:27;;;;;;;60.90;4.90;;;;;;;;;;5070355;28;20451;-66
2022/07/05 03:41:56;;;;;;;60.80;4.70;;;;;;;;;;5071732;28;20451;-66
2022/07/05 03:44:24;;;;;;;60.70;4.50;;;;;;;;;;5071917;28;20459;-66
2022/07/05 03:46:51;;;;;;;60.87;4.80;;;;;;;;;;5071936;28;20472;-66
2022/07/05 03:49:19;;;;;;;60.50;4.40;;;;;;;;;;5071659;28;20439;-66
2022/07/05 03:51:46;;;;;;;61.07;5.20;;;;;;;;;;5072066;28;20927;-66
2022/07/05 03:54:14;;;;;;;61.40;5.10;;;;;;;;;;5071464;28;20483;-66
2022/07/05 03:56:41;;;;;;;63.47;5.90;;;;;;;;;;5071613;28;20512;-66
2022/07/05 03:59:10;;;;;;;61.60;4.77;;;;;;;;;;5071399;28;20494;-66
2022/07/05 04:01:37;;;;;;;60.67;4.80;;;;;;;;;;5071623;28;20469;-66
2022/07/05 04:04:05;;;;;;;60.30;4.40;;;;;;;;;;5071556;28;20874;-66
2022/07/05 04:06:33;;;;;;;59.90;4.60;;;;;;;;;;5070349;28;20541;-66
2022/07/05 04:09:00;;;;;;;61.87;4.57;;;;;;;;;;5071251;28;20447;-66
2022/07/05 04:11:27;;;;;;;60.50;4.93;;;;;;;;;;5071845;28;20822;-66
2022/07/05 04:13:56;;;;;;;62.70;5.47;;;;;;;;;;5071299;28;20504;-66
2022/07/05 04:16:25;;;;;;;61.67;5.00;;;;;;;;;;5071666;28;20472;-66
2022/07/05 04:18:54;;;;;;;60.87;4.77;;;;;;;;;;5071295;28;20451;-66
2022/07/05 04:21:22;;;;;;;60.87;5.10;;;;;;;;;;5071392;28;20495;-66
2022/07/05 04:23:49;;;;;;;60.30;5.07;;;;;;;;;;5071379;28;20467;-66
2022/07/05 04:26:16;;;;;;;61.30;4.60;;;;;;;;;;5071415;28;20460;-66
2022/07/05 04:28:43;;;;;;;60.20;4.90;;;;;;;;;;5069802;28;20460;-66
2022/07/05 04:31:10;;;;;;;60.70;5.00;;;;;;;;;;5070137;28;20454;-66
2022/07/05 04:33:39;;;;;;;60.47;4.90;;;;;;;;;;5071203;28;20479;-66
2022/07/05 04:36:07;;;;;;;60.70;4.60;;;;;;;;;;5071050;28;20466;-66
2022/07/05 04:38:34;;;;;;;61.23;4.97;;;;;;;;;;5071230;28;20443;-66
2022/07/05 04:41:01;;;;;;;61.10;4.63;;;;;;;;;;5072482;28;20880;-66
2022/07/05 04:43:28;;;;;;;60.77;4.70;;;;;;;;;;5075114;28;20842;-66
2022/07/05 04:45:55;;;;;;;61.20;5.00;;;;;;;;;;5075217;28;20843;-66
2022/07/05 04:48:25;;;;;;;60.07;4.53;;;;;;;;;;5074591;28;20468;-66
2022/07/05 04:50:54;;;;;;;59.90;4.30;;;;;;;;;;5074670;28;20502;-66
2022/07/05 04:53:21;;;;;;;61.07;4.77;;;;;;;;;;5074593;28;21013;-66
2022/07/05 04:55:48;;;;;;;60.87;5.00;;;;;;;;;;5075001;28;20912;-66
2022/07/05 04:58:16;;;;;;;63.03;4.87;;;;;;;;;;5074498;28;20461;-66
2022/07/05 05:00:43;;;;;;;60.77;4.37;;;;;;;;;;5074770;28;20451;-66
2022/07/05 05:03:10;;;;;;;60.57;4.97;;;;;;;;;;5074487;28;20463;-66
2022/07/05 05:05:39;;;;;;;60.77;4.93;;;;;;;;;;5074672;28;20458;-66
2022/07/05 05:08:07;;;;;;;60.30;4.70;;;;;;;;;;5072724;28;20447;-66
2022/07/05 05:10:36;;;;;;;61.60;4.87;;;;;;;;;;5074616;28;20448;-66
2022/07/05 05:13:03;;;;;;;60.80;5.20;;;;;;;;;;5074446;28;20487;-66
2022/07/05 05:15:30;;;;;;;60.10;4.50;;;;;;;;;;5074343;28;20649;-66
2022/07/05 05:17:58;;;;;;;61.67;5.10;;;;;;;;;;5074512;28;20864;-66
2022/07/05 05:20:25;;;;;;;60.40;4.90;;;;;;;;;;5074598;28;20447;-66
2022/07/05 05:22:52;;;;;;;60.60;5.00;;;;;;;;;;5074565;28;20469;-66
2022/07/05 05:25:21;;;;;;;59.80;4.20;;;;;;;;;;5074325;28;20443;-66
2022/07/05 05:27:52;;;;;;;59.90;4.40;;;;;;;;;;5074108;28;20448;-66
2022/07/05 05:30:20;;;;;;;59.50;4.10;;;;;;;;;;5074363;28;20854;-66
2022/07/05 05:32:48;;;;;;;59.80;4.30;;;;;;;;;;5074561;28;20447;-66
2022/07/05 05:35:18;;;;;;;60.40;4.97;;;;;;;;;;5073647;28;20443;-66
2022/07/05 05:37:49;;;;;;;60.20;4.53;;;;;;;;;;5073328;28;20470;-66
2022/07/05 05:40:17;;;;;;;60.30;4.40;;;;;;;;;;5074116;28;20446;-66
2022/07/05 05:42:48;;;;;;;61.30;4.97;;;;;;;;;;5073744;28;20822;-66
2022/07/05 05:45:16;;;;;;;60.90;5.20;;;;;;;;;;5074012;28;20441;-66
2022/07/05 05:47:47;;;;;;;59.70;5.10;;;;;;;;;;5073761;28;20478;-67
2022/07/05 05:50:17;;;;;;;59.53;4.10;;;;;;;;;;5073994;28;20453;-67
2022/07/05 05:52:44;;;;;;;60.47;4.70;;;;;;;;;;5073404;28;20829;-67
2022/07/05 05:55:12;;;;;;;60.27;4.50;;;;;;;;;;5073806;28;20480;-66
2022/07/05 05:57:40;;;;;;;60.20;5.00;;;;;;;;;;5073632;28;20453;-66
2022/07/05 06:00:10;;;;;;;59.80;4.83;;;;;;;;;;5073955;28;20451;-66
2022/07/05 06:02:38;;;;;;;59.57;4.27;;;;;;;;;;5073377;28;20459;-66
2022/07/05 06:05:05;;;;;;;61.70;5.67;;;;;;;;;;5073660;28;20445;-66
2022/07/05 06:07:34;;;;;;;60.07;4.53;;;;;;;;;;5073332;28;20446;-66
2022/07/05 06:10:01;;;;;;;62.93;4.80;;;;;;;;;;5073419;28;20449;-66
2022/07/05 06:12:31;;;;;;;59.93;4.40;;;;;;;;;;5073548;28;20453;-67
2022/07/05 06:15:03;;;;;;;60.10;4.10;;;;;;;;;;5073455;28;20503;-67
2022/07/05 06:17:37;;;;;;;60.47;4.43;;;;;;;;;;5071964;28;20526;-66
2022/07/05 06:20:05;;;;;;;61.40;4.50;;;;;;;;;;5073111;28;20509;-66
2022/07/05 06:22:32;;;;;;;63.97;4.00;;;;;;;;;;5073102;28;21218;-66
2022/07/05 06:25:00;;;;;;;59.30;3.67;;;;;;;;;;5073375;28;20443;-66
2022/07/05 06:27:28;;;;;;;59.50;4.07;;;;;;;;;;5073190;28;20812;-66
2022/07/05 06:29:55;;;;;;;59.87;3.50;;;;;;;;;;5071881;28;20501;-66
2022/07/05 06:32:23;;;;;;;60.37;3.53;;;;;;;;;;5073058;28;20444;-67
2022/07/05 06:34:51;;;;;;;59.40;3.53;;;;;;;;;;5072766;28;20544;-67
2022/07/05 06:37:19;;;;;;;59.60;4.23;;;;;;;;;;5072606;28;20450;-67
2022/07/05 06:39:46;;;;;;;59.37;3.67;;;;;;;;;;5072916;28;20955;-67
2022/07/05 06:42:13;;;;;;;59.37;3.77;;;;;;;;;;5072850;28;20456;-67
2022/07/05 06:44:41;;;;;;;59.80;3.20;;;;;;;;;;5072853;28;20468;-67
2022/07/05 06:47:09;;;;;;;64.70;3.57;;;;;;;;;;5072934;28;20578;-67
2022/07/05 06:49:36;;;;;;;59.13;3.20;;;;;;;;;;5072483;28;20458;-66
2022/07/05 06:52:05;;;;;;;60.07;3.53;;;;;;;;;;5071753;28;20450;-67
2022/07/05 06:54:33;;;;;;;58.90;3.00;;;;;;;;;;5072519;28;20485;-67
2022/07/05 06:57:01;;;;;;;59.50;3.60;;;;;;;;;;5071360;28;20858;-66
2022/07/05 06:59:29;;;;;;;59.27;3.30;;;;;;;;;;5071179;28;20452;-67
2022/07/05 07:01:56;;;;;;;59.90;3.50;;;;;;;;;;5072459;28;20456;-67
2022/07/05 07:04:23;;;;;;;59.37;3.17;;;;;;;;;;5071582;28;20471;-67
2022/07/05 07:06:50;;;;;;;59.17;3.43;;;;;;;;;;5071383;28;20451;-67
2022/07/05 07:09:19;;;;;;;58.87;3.50;;;;;;;;;;5072221;28;20458;-67
2022/07/05 07:11:48;;;;;;;60.67;3.87;;;;;;;;;;5072458;28;20452;-67
2022/07/05 07:14:15;;;;;;;60.40;3.50;;;;;;;;;;5070719;28;20483;-67
2022/07/05 07:16:42;;;;;;;58.57;3.27;;;;;;;;;;5072121;28;20451;-67
2022/07/05 07:19:12;;;;;;;60.80;3.70;;;;;;;;;;5071863;28;20470;-67
2022/07/05 07:21:40;;;;;;;60.87;3.30;;;;;;;;;;5072215;28;20527;-66
2022/07/05 07:24:09;;;;;;;58.97;3.20;;;;;;;;;;5072072;28;20538;-67
2022/07/05 07:29:23;;;;;;;61.77;3.50;;;;;;;;;;5071936;28;20512;-67
2022/07/05 07:31:50;;;;;;;58.97;3.40;;;;;;;;;;5072187;28;20457;-67
2022/07/05 07:34:19;;;;;;;59.37;3.27;;;;;;;;;;5072182;28;20576;-67
2022/07/05 07:36:53;;;;;;;59.70;3.27;;;;;;;;;;5071806;28;20459;-67
2022/07/05 07:39:22;;;;;;;58.93;3.47;;;;;;;;;;5071681;28;20447;-66
2022/07/05 07:41:52;;;;;;;59.07;3.10;;;;;;;;;;5071874;28;20450;-67
2022/07/05 07:44:20;;;;;;;60.20;3.43;;;;;;;;;;5071886;28;20470;-67
2022/07/05 07:46:48;;;;;;;59.00;3.10;;;;;;;;;;5071923;28;20547;-66
2022/07/05 07:49:15;;;;;;;59.33;2.90;;;;;;;;;;5071614;28;20478;-67
2022/07/05 07:51:42;;;;;;;58.83;3.00;;;;;;;;;;5071740;28;20944;-67
2022/07/05 07:54:13;;;;;;;61.00;4.00;;;;;;;;;;5071421;28;20514;-67
2022/07/05 07:56:40;;;;;;;59.57;3.10;;;;;;;;;;5070429;28;20455;-66
2022/07/05 07:59:08;;;;;;;60.97;3.87;;;;;;;;;;5071366;28;20835;-67
2022/07/05 08:01:36;;;;;;;58.90;3.10;;;;;;;;;;5071829;28;20447;-67
2022/07/05 08:04:06;;;;;;;59.73;3.27;;;;;;;;;;5071513;28;20478;-67
2022/07/05 08:06:33;;;;;;;59.87;3.40;;;;;;;;;;5071512;28;20808;-67
2022/07/05 08:09:01;;;;;;;59.00;2.90;;;;;;;;;;5070124;28;20855;-67
2022/07/05 08:11:28;;;;;;;61.43;3.37;;;;;;;;;;5071686;28;20447;-67
2022/07/05 08:13:55;;;;;;;58.80;3.13;;;;;;;;;;5071293;28;20467;-67
2022/07/05 08:16:24;;;;;;;58.63;3.47;;;;;;;;;;5075201;28;20483;-67
2022/07/05 08:21:38;;;;;;;58.90;3.30;;;;;;;;;;5075693;28;20999;-67
2022/07/05 08:24:06;;;;;;;60.17;3.00;;;;;;;;;;5075599;28;20828;-67
2022/07/05 08:26:33;;;;;;;59.00;3.17;;;;;;;;;;5075478;28;20938;-67
2022/07/05 08:29:01;;;;;;;60.07;3.13;;;;;;;;;;5075429;28;20584;-67
2022/07/05 08:31:31;;;;;;;59.87;3.83;;;;;;;;;;5073982;28;20462;-67
2022/07/05 08:33:59;;;;;;;58.60;3.23;;;;;;;;;;5075414;28;20827;-67
2022/07/05 08:36:26;;;;;;;59.93;3.60;;;;;;;;;;5075455;28;20451;-67
2022/07/05 08:38:56;;;;;;;58.97;2.70;;;;;;;;;;5073728;28;20601;-67
2022/07/05 08:41:26;;;;;;;61.90;3.30;;;;;;;;;;5075300;28;20451;-67
2022/07/05 08:43:53;;;;;;;59.00;2.97;;;;;;;;;;5074950;28;20471;-66
2022/07/05 08:46:22;;;;;;;63.10;3.90;;;;;;;;;;5075509;28;20800;-65
2022/07/05 08:48:51;;;;;;;59.40;3.23;;;;;;;;;;5075124;28;20542;-67
2022/07/05 08:51:20;;;;;;;59.63;3.30;;;;;;;;;;5075058;28;20546;-67
2022/07/05 08:53:48;;;;;;;58.60;3.00;;;;;;;;;;5074689;28;20864;-67
2022/07/05 08:56:18;;;;;;;59.27;3.20;;;;;;;;;;5074900;28;20440;-66
2022/07/05 08:58:49;;;;;;;59.13;2.80;;;;;;;;;;5074479;28;20451;-66
2022/07/05 09:01:18;;;;;;;60.40;3.03;;;;;;;;;;5075255;28;20552;-66
2022/07/05 09:03:45;;;;;;;58.47;2.97;;;;;;;;;;5074902;28;20494;-66
2022/07/05 09:06:14;;;;;;;58.80;3.10;;;;;;;;;;5074817;28;20446;-66
2022/07/05 09:08:43;;;;;;;61.27;2.90;;;;;;;;;;5074143;28;20444;-66
2022/07/05 09:11:13;;;;;;;59.20;3.20;;;;;;;;;;5074572;28;20791;-66
2022/07/05 09:13:42;;;;;;;60.00;2.93;;;;;;;;;;5074664;28;20460;-66
2022/07/05 09:16:11;;;;;;;58.70;2.90;;;;;;;;;;5074564;28;20497;-66
2022/07/05 09:18:42;;;;;;;58.17;2.73;;;;;;;;;;5074315;28;20451;-67
2022/07/05 09:21:20;;;;;;;62.20;2.70;;;;;;;;;;5073237;28;20469;-67
2022/07/05 09:24:03;;;;;;;58.47;2.40;;;;;;;;;;5074125;28;20467;-67
2022/07/05 09:26:33;;;;;;;60.40;3.07;;;;;;;;;;5073598;28;20827;-66
2022/07/05 09:29:02;;;;;;;62.00;3.17;;;;;;;;;;5074148;28;20825;-67
2022/07/05 09:31:31;;;;;;;58.60;2.70;;;;;;;;;;5074349;28;20459;-66
2022/07/05 09:34:08;;;;;;;58.70;3.00;;;;;;;;;;5074390;28;20979;-67
2022/07/05 09:36:53;;;;;;;58.17;2.90;;;;;;;;;;5073797;28;20450;-67
2022/07/05 09:39:36;;;;;;;58.60;2.70;;;;;;;;;;5073913;28;20440;-67
2022/07/05 09:42:12;;;;;;;58.40;2.80;;;;;;;;;;5074108;28;20937;-67
2022/07/05 09:44:39;;;;;;;58.30;2.40;;;;;;;;;;5073936;28;20455;-67
2022/07/05 09:47:11;;;;;;;61.97;2.93;;;;;;;;;;5073727;28;20450;-67
2022/07/05 09:49:39;;;;;;;61.73;2.87;;;;;;;;;;5074179;28;20442;-67
2022/07/05 09:52:07;;;;;;;59.20;2.60;;;;;;;;;;5074094;28;20579;-66
2022/07/05 09:54:35;;;;;;;60.07;3.13;;;;;;;;;;5073795;28;20485;-67
2022/07/05 09:57:04;;;;;;;58.27;2.57;;;;;;;;;;5073863;28;20454;-67
2022/07/05 09:59:32;;;;;;;58.10;2.50;;;;;;;;;;5073478;28;20820;-67
2022/07/05 10:01:59;;;;;;;58.50;2.50;;;;;;;;;;5074011;28;20866;-66
2022/07/05 10:04:27;;;;;;;58.23;2.70;;;;;;;;;;5071786;28;20850;-66
2022/07/05 10:06:57;;;;;;;60.90;2.77;;;;;;;;;;5072028;28;20443;-66
2022/07/05 10:12:31;;;;;;;58.67;2.47;;;;;;;;;;5070079;28;20730;-67
2022/07/05 10:15:00;;;;;;;58.47;2.53;;;;;;;;;;5073490;28;20574;-67
2022/07/05 10:17:30;;;;;;;58.30;2.50;;;;;;;;;;5072892;28;20970;-67
2022/07/05 10:19:59;;;;;;;58.67;2.30;;;;;;;;;;5073371;28;20439;-66
2022/07/05 10:22:28;;;;;;;59.27;2.30;;;;;;;;;;5073134;28;20800;-67
2022/07/05 10:25:03;;;;;;;58.30;2.40;;;;;;;;;;5071904;28;20476;-67
2022/07/05 10:27:41;;;;;;;60.00;2.40;;;;;;;;;;5072878;28;20546;-67
2022/07/05 10:30:13;;;;;;;58.77;2.30;;;;;;;;;;5071047;28;20465;-67
2022/07/05 10:35:53;;;;;;;57.20;2.07;;;;;;;;;;5109572;27;20519;-65
2022/07/05 10:38:26;;;;;;;57.40;2.10;;;;;;;;;;5109456;28;20520;-66
2022/07/05 10:40:56;;;;;;;56.97;1.70;;;;;;;;;;5109306;28;20450;-66
2022/07/05 10:43:32;;;;;;;58.77;1.93;;;;;;;;;;5108325;28;21003;-66
2022/07/05 10:46:02;;;;;;;57.13;1.90;;;;;;;;;;5107868;28;20804;-66
2022/07/05 10:48:32;;;;;;;56.67;1.80;;;;;;;;;;5108623;28;20453;-66
2022/07/05 10:51:06;;;;;;;56.77;1.90;;;;;;;;;;5109244;28;20933;-66
2022/07/05 10:53:51;;;;;;;56.67;1.90;;;;;;;;;;5109149;28;20489;-66
2022/07/05 10:56:21;;;;;;;57.50;2.10;;;;;;;;;;5109245;28;20450;-66
2022/07/05 10:58:50;;;;;;;57.00;1.87;;;;;;;;;;5109006;28;20473;-66
2022/07/05 11:01:39;;;;;;;56.47;1.77;;;;;;;;;;5108740;28;20965;-66
2022/07/05 11:04:41;;;;;;;56.47;1.90;;;;;;;;;;5109182;28;20457;-66
2022/07/05 11:07:10;;;;;;;57.10;2.40;;;;;;;;;;5064254;28;20877;-66
2022/07/05 11:09:41;;;;;;;56.57;2.17;;;;;;;;;;5066169;28;20479;-66
2022/07/05 11:12:09;;;;;;;56.27;1.80;;;;;;;;;;5063611;28;20509;-66
2022/07/05 11:14:38;;;;;;;56.97;1.90;;;;;;;;;;5065660;28;20897;-66
2022/07/05 11:17:22;;;;;;;57.40;2.43;;;;;;;;;;5065413;28;20466;-66
2022/07/05 11:20:19;;;;;;;57.43;2.10;;;;;;;;;;5065935;28;20455;-66
2022/07/05 11:23:20;;;;;;;56.67;1.80;;;;;;;;;;5065633;28;21012;-66
2022/07/05 11:25:55;;;;;;;58.00;2.00;;;;;;;;;;5009608;28;20962;-66
2022/07/05 11:31:09;;;;;;;57.83;2.23;;;;;;;;;;5025103;28;20941;-66
2022/07/05 11:33:38;;;;;;;56.77;2.00;;;;;;;;;;5023487;28;20481;-66
2022/07/05 11:36:10;;;;;;;56.67;1.80;;;;;;;;;;5025874;28;20453;-66
2022/07/05 11:39:06;;;;;;;56.87;2.10;;;;;;;;;;5025536;28;20536;-66
2022/07/05 11:42:00;;;;;;;56.37;1.90;;;;;;;;;;5025706;28;20449;-66
2022/07/05 11:44:34;;;;;;;56.70;2.23;;;;;;;;;;5023770;28;20552;-66
2022/07/05 11:47:12;;;;;;;57.50;2.10;;;;;;;;;;5010088;28;20544;-66
2022/07/05 11:49:54;;;;;;;56.57;2.03;;;;;;;;;;5012449;28;20465;-66
2022/07/05 11:52:28;;;;;;;56.90;2.10;;;;;;;;;;5012187;28;20445;-66
2022/07/05 11:54:59;;;;;;;57.83;2.13;;;;;;;;;;5011162;28;20640;-66
2022/07/05 12:00:31;;;;;;;56.37;2.10;;;;;;;;;;5094643;28;20447;-66
2022/07/05 12:03:00;;;;;;;56.67;1.97;;;;;;;;;;5094263;28;20458;-66
2022/07/05 12:05:37;;;;;;;56.90;2.23;;;;;;;;;;5092455;28;20877;-66
2022/07/05 12:08:09;;;;;;;56.70;2.10;;;;;;;;;;5094232;28;20445;-66
2022/07/05 12:13:25;;;;;;;56.40;2.33;;;;;;;;;;5093966;28;20438;-66
2022/07/05 12:16:01;;;;;;;56.60;2.30;;;;;;;;;;5094172;28;20562;-65
2022/07/05 12:18:30;;;;;;;56.80;2.07;;;;;;;;;;5094163;28;20453;-65
2022/07/05 12:21:20;;;;;;;56.53;1.97;;;;;;;;;;5092700;28;20545;-65
2022/07/05 12:23:56;;;;;;;56.93;2.10;;;;;;;;;;5091741;28;20473;-65
2022/07/05 12:26:33;;;;;;;56.30;1.80;;;;;;;;;;5092248;28;20537;-66
2022/07/05 12:29:03;;;;;;;56.50;2.00;;;;;;;;;;5093750;28;20844;-65
2022/07/05 12:32:01;;;;;;;57.03;1.90;;;;;;;;;;5094040;28;20965;-65
2022/07/05 12:38:09;;;;;;;56.53;2.03;;;;;;;;;;5093602;28;21023;-66
2022/07/05 12:40:39;;;;;;;56.80;2.00;;;;;;;;;;5092470;28;20534;-65
2022/07/05 12:43:14;;;;;;;56.37;2.00;;;;;;;;;;5093274;28;20470;-66
2022/07/05 12:45:48;;;;;;;58.17;2.70;;;;;;;;;;5092231;28;20961;-66
2022/07/05 12:48:35;;;;;;;57.30;1.93;;;;;;;;;;5093225;28;20822;-66
2022/07/05 12:51:10;;;;;;;56.50;2.00;;;;;;;;;;5091894;28;20446;-66
2022/07/05 12:59:19;;;;;;;57.97;2.20;;;;;;;;;;5092827;28;20418;-66
2022/07/05 13:01:46;;;;;;;58.70;2.30;;;;;;;;;;5093555;28;20438;-66
2022/07/05 13:04:16;;;;;;;58.07;2.23;;;;;;;;;;5093259;28;20462;-66
2022/07/05 13:06:46;;;;;;;56.67;2.13;;;;;;;;;;5092943;28;20533;-66
2022/07/05 13:09:19;;;;;;;57.10;2.20;;;;;;;;;;5093063;28;20453;-66
2022/07/05 13:11:48;;;;;;;56.90;2.00;;;;;;;;;;5091935;28;20501;-66
2022/07/05 13:14:18;;;;;;;56.63;2.20;;;;;;;;;;5090972;28;20586;-66
2022/07/05 13:16:51;;;;;;;56.57;2.00;;;;;;;;;;5093053;28;20935;-66
2022/07/05 13:19:21;;;;;;;57.00;2.03;;;;;;;;;;5093018;28;20495;-66
2022/07/05 13:21:57;;;;;;;56.47;1.83;;;;;;;;;;5090443;28;20481;-66
2022/07/05 13:24:27;;;;;;;56.40;1.70;;;;;;;;;;5092512;28;20466;-67
2022/07/05 13:29:57;;;;;;;58.80;2.30;;;;;;;;;;5091510;28;20544;-66
2022/07/05 13:32:26;;;;;;;57.10;2.00;;;;;;;;;;5092844;28;20454;-66
2022/07/05 13:34:55;;;;;;;56.77;2.20;;;;;;;;;;5092252;28;20497;-66
2022/07/05 13:37:23;;;;;;;58.43;2.10;;;;;;;;;;5092535;28;20829;-67
2022/07/05 13:39:52;;;;;;;56.60;2.10;;;;;;;;;;5091506;28;20480;-67
2022/07/05 13:42:20;;;;;;;56.80;2.13;;;;;;;;;;5092559;28;20530;-67
2022/07/05 13:44:47;;;;;;;56.60;2.10;;;;;;;;;;5092555;28;20490;-66
2022/07/05 13:47:14;;;;;;;56.80;1.97;;;;;;;;;;5090700;28;20816;-66
2022/07/05 13:49:42;;;;;;;56.80;1.83;;;;;;;;;;5092615;28;20452;-66
2022/07/05 13:52:09;;;;;;;56.77;2.20;;;;;;;;;;5092322;28;20451;-67
2022/07/05 13:54:38;;;;;;;57.93;2.30;;;;;;;;;;5092109;28;21013;-67
2022/07/05 13:57:06;;;;;;;56.80;2.30;;;;;;;;;;5092294;28;20451;-67
2022/07/05 13:59:33;;;;;;;57.10;2.03;;;;;;;;;;5092218;28;20453;-67
2022/07/05 14:02:00;;;;;;;56.60;2.00;;;;;;;;;;5092111;28;20833;-67
2022/07/05 14:04:29;;;;;;;57.33;2.37;;;;;;;;;;5091857;28;20466;-67
2022/07/05 14:06:57;;;;;;;56.90;2.57;;;;;;;;;;5092286;28;20447;-66
2022/07/05 14:09:26;;;;;;;57.17;2.30;;;;;;;;;;5091537;28;20934;-67
2022/07/05 14:11:55;;;;;;;58.17;2.17;;;;;;;;;;5091551;28;20454;-67
2022/07/05 14:14:22;;;;;;;56.43;2.10;;;;;;;;;;5090406;28;20502;-66
2022/07/05 14:16:50;;;;;;;56.50;2.20;;;;;;;;;;5092187;28;20486;-67
2022/07/05 14:19:18;;;;;;;56.50;1.73;;;;;;;;;;5091681;28;20450;-67
2022/07/05 14:21:46;;;;;;;56.70;2.00;;;;;;;;;;5092072;28;20442;-67
2022/07/05 14:24:14;;;;;;;57.80;1.93;;;;;;;;;;5092046;28;20558;-67
2022/07/05 14:26:44;;;;;;;56.93;2.00;;;;;;;;;;5091956;28;20446;-67
2022/07/05 14:29:13;;;;;;;57.10;2.07;;;;;;;;;;5091796;28;20856;-66
2022/07/05 14:31:43;;;;;;;56.60;2.20;;;;;;;;;;5090657;28;21029;-67
2022/07/05 14:34:10;;;;;;;59.13;2.03;;;;;;;;;;5091642;28;21028;-67
2022/07/05 14:36:37;;;;;;;57.00;2.30;;;;;;;;;;5091822;28;20850;-67
2022/07/05 14:39:07;;;;;;;56.83;2.07;;;;;;;;;;5091573;28;20825;-66
2022/07/05 14:41:34;;;;;;;56.70;2.23;;;;;;;;;;5091242;28;20447;-66
2022/07/05 14:44:01;;;;;;;56.40;2.17;;;;;;;;;;5091775;28;20469;-66
2022/07/05 14:46:30;;;;;;;57.20;2.23;;;;;;;;;;5091960;28;20444;-66
2022/07/05 14:48:57;;;;;;;56.67;2.10;;;;;;;;;;5091443;28;20945;-68
2022/07/05 14:51:33;;;;;;;56.73;2.13;;;;;;;;;;5091773;28;20503;-68
2022/07/05 14:54:01;;;;;;;57.37;2.40;;;;;;;;;;5091397;28;20468;-68
2022/07/05 14:56:28;;;;;;;57.67;2.10;;;;;;;;;;5091611;28;20822;-68
2022/07/05 14:58:55;;;;;;;57.03;1.80;;;;;;;;;;5091535;28;20451;-68
2022/07/05 15:01:23;;;;;;;56.70;2.00;;;;;;;;;;5091699;28;20449;-68
2022/07/05 15:03:52;;;;;;;56.77;2.23;;;;;;;;;;5091535;28;20470;-68
2022/07/05 15:06:19;;;;;;;56.87;2.60;;;;;;;;;;5091527;28;20452;-68
2022/07/05 15:08:48;;;;;;;57.00;2.53;;;;;;;;;;5090671;28;20968;-68
2022/07/05 15:11:17;;;;;;;57.67;2.20;;;;;;;;;;5091718;28;20447;-68
2022/07/05 15:13:44;;;;;;;56.90;2.20;;;;;;;;;;5090003;28;20557;-68
2022/07/05 15:16:12;;;;;;;57.20;2.37;;;;;;;;;;5091320;28;20482;-68
2022/07/05 15:18:41;;;;;;;56.90;2.20;;;;;;;;;;5091214;28;20457;-68